Time;durP1;ratioP1;P1;durP2;ratioP2;P2;SDS_P1;SDS_P2;PMS_P1;PMS_P2;Temp;Humidity;BMP_temperature;BMP_pressure;BME280_temperature;BME280_humidity;BME280_pressure;Samples;Min_cycle;Max_cycle;Signal;HPM_P1;HPM_P2
2023/06/18 00:01:52;;;;;;;13.10;8.47;;;13.70;21.90;;;;;;5030655;28;46618;-77
2023/06/18 00:04:18;;;;;;;15.53;8.40;;;13.70;22.10;;;;;;5032223;28;46904;-76
2023/06/18 00:06:43;;;;;;;12.97;8.03;;;13.70;22.20;;;;;;5032738;28;46965;-76
2023/06/18 00:09:09;;;;;;;17.37;9.40;;;13.70;22.20;;;;;;5031976;28;46630;-77
2023/06/18 00:11:34;;;;;;;13.70;8.30;;;13.60;23.10;;;;;;5043997;28;46487;-77
2023/06/18 00:14:00;;;;;;;14.20;10.23;;;13.60;22.40;;;;;;5031787;28;46269;-77
2023/06/18 00:16:25;;;;;;;16.30;8.20;;;13.60;23.40;;;;;;5033140;28;46633;-78
2023/06/18 00:18:51;;;;;;;15.70;9.23;;;13.50;22.60;;;;;;5029816;28;46522;-78
2023/06/18 00:21:16;;;;;;;12.70;8.70;;;13.40;22.70;;;;;;5033464;28;46626;-77
2023/06/18 00:23:42;;;;;;;14.50;9.77;;;13.40;22.90;;;;;;5035179;28;48060;-76
2023/06/18 00:26:07;;;;;;;12.40;8.57;;;13.30;23.00;;;;;;5030673;28;46591;-76
2023/06/18 00:28:33;;;;;;;15.90;9.07;;;13.30;23.30;;;;;;5030627;28;45946;-76
2023/06/18 00:30:59;;;;;;;19.63;9.00;;;13.10;23.50;;;;;;5033485;28;46159;-77
2023/06/18 00:33:24;;;;;;;21.93;8.60;;;13.10;23.60;;;;;;5028818;28;47025;-77
2023/06/18 00:35:56;;;;;;;15.17;9.37;;;13.00;23.60;;;;;;5033139;28;46383;-76
2023/06/18 00:38:23;;;;;;;19.03;9.70;;;13.00;23.60;;;;;;5030124;28;46446;-77
2023/06/18 00:40:50;;;;;;;16.60;9.47;;;13.10;23.70;;;;;;5030465;28;45907;-77
2023/06/18 00:43:16;;;;;;;13.43;9.03;;;13.00;23.60;;;;;;5032494;28;47126;-77
2023/06/18 00:45:41;;;;;;;14.00;8.70;;;13.00;23.70;;;;;;5035961;28;46679;-77
2023/06/18 00:48:07;;;;;;;13.20;9.20;;;12.90;23.80;;;;;;5031541;28;45824;-77
2023/06/18 00:50:34;;;;;;;15.53;9.27;;;12.90;24.80;;;;;;5034121;28;46674;-78
2023/06/18 00:53:00;;;;;;;16.63;9.60;;;12.90;24.00;;;;;;5032748;28;46537;-78
2023/06/18 00:55:30;;;;;;;15.97;10.40;;;12.90;24.20;;;;;;5034609;28;46584;-76
2023/06/18 00:57:59;;;;;;;15.30;9.73;;;12.80;24.20;;;;;;5035549;28;46419;-79
2023/06/18 01:00:28;;;;;;;15.23;9.80;;;12.80;24.30;;;;;;5034221;28;46594;-77
2023/06/18 01:02:55;;;;;;;18.00;9.03;;;12.80;24.40;;;;;;5032489;28;46750;-78
2023/06/18 01:05:22;;;;;;;16.83;8.67;;;12.80;24.50;;;;;;5030100;28;46603;-77
2023/06/18 01:07:49;;;;;;;17.23;9.40;;;12.80;24.50;;;;;;5032981;28;46749;-77
2023/06/18 01:10:15;;;;;;;12.73;9.50;;;12.70;24.70;;;;;;5032665;28;46419;-77
2023/06/18 01:12:45;;;;;;;13.53;9.30;;;12.60;24.90;;;;;;5031438;28;48632;-77
2023/06/18 01:15:12;;;;;;;15.43;9.53;;;12.50;25.10;;;;;;5036482;28;46607;-77
2023/06/18 01:17:39;;;;;;;15.70;8.90;;;12.40;25.10;;;;;;5031517;28;46443;-78
2023/06/18 01:20:10;;;;;;;16.27;9.50;;;12.30;25.20;;;;;;5032674;28;46123;-77
2023/06/18 01:22:52;;;;;;;14.77;10.20;;;12.20;25.40;;;;;;5030626;28;47066;-76
2023/06/18 01:25:18;;;;;;;15.30;9.30;;;12.20;25.80;;;;;;5029892;28;46511;-77
2023/06/18 01:27:46;;;;;;;15.33;9.63;;;12.20;25.40;;;;;;5030220;28;46770;-77
2023/06/18 01:30:13;;;;;;;17.60;9.27;;;12.20;25.40;;;;;;5029851;28;46583;-77
2023/06/18 01:32:40;;;;;;;16.47;10.03;;;12.20;25.40;;;;;;5027777;28;46468;-79
2023/06/18 01:35:08;;;;;;;15.70;10.43;;;12.30;25.50;;;;;;5030721;28;46381;-78
2023/06/18 01:38:01;;;;;;;15.60;10.07;;;12.20;25.30;;;;;;5028951;28;46450;-78
2023/06/18 01:40:52;;;;;;;15.60;10.17;;;12.20;25.70;;;;;;5031455;28;46782;-78
2023/06/18 01:43:30;;;;;;;15.80;10.57;;;12.30;25.80;;;;;;5031136;28;47327;-78
2023/06/18 01:46:02;;;;;;;21.03;10.87;;;12.30;25.40;;;;;;5031799;28;46150;-78
2023/06/18 01:48:36;;;;;;;15.40;10.20;;;12.30;25.50;;;;;;5027061;28;46394;-78
2023/06/18 01:51:04;;;;;;;18.83;10.17;;;12.30;25.60;;;;;;5028554;28;46163;-78
2023/06/18 01:53:31;;;;;;;17.03;10.20;;;12.30;25.70;;;;;;5028733;28;46550;-78
2023/06/18 01:55:59;;;;;;;15.83;10.63;;;12.30;25.70;;;;;;5037567;28;45993;-77
2023/06/18 01:58:25;;;;;;;19.90;11.80;;;12.30;25.90;;;;;;5031373;28;46625;-78
2023/06/18 02:00:52;;;;;;;17.20;11.47;;;12.30;26.00;;;;;;5032299;28;47220;-78
2023/06/18 02:03:18;;;;;;;18.20;11.60;;;12.30;25.80;;;;;;5029636;28;46707;-78
2023/06/18 02:05:44;;;;;;;15.33;11.33;;;12.30;25.80;;;;;;5031671;28;46404;-79
2023/06/18 02:08:10;;;;;;;16.87;11.77;;;12.30;25.90;;;;;;5028050;28;46477;-78
2023/06/18 02:10:36;;;;;;;14.37;10.20;;;12.20;26.00;;;;;;5026183;28;45803;-77
2023/06/18 02:13:01;;;;;;;20.80;11.43;;;12.20;26.20;;;;;;5034158;28;46456;-77
2023/06/18 02:15:27;;;;;;;17.00;11.47;;;12.20;26.00;;;;;;5030818;28;45937;-78
2023/06/18 02:17:52;;;;;;;17.40;11.80;;;12.30;26.00;;;;;;5029531;28;46382;-79
2023/06/18 02:20:18;;;;;;;17.00;12.07;;;12.30;25.90;;;;;;5029761;28;46573;-78
2023/06/18 02:22:44;;;;;;;17.40;11.00;;;12.30;25.90;;;;;;5032281;28;46767;-78
2023/06/18 02:25:10;;;;;;;13.97;9.80;;;12.30;25.90;;;;;;5031407;28;45924;-77
2023/06/18 02:27:36;;;;;;;18.00;12.23;;;12.30;27.00;;;;;;5030622;28;46364;-78
2023/06/18 02:30:03;;;;;;;20.03;11.33;;;12.30;26.10;;;;;;5030635;28;46403;-80
2023/06/18 02:32:31;;;;;;;17.63;11.20;;;12.20;26.10;;;;;;5032681;28;46754;-78
2023/06/18 02:34:57;;;;;;;18.43;12.43;;;12.20;26.20;;;;;;5028917;28;46541;-77
2023/06/18 02:37:22;;;;;;;15.87;11.10;;;12.20;26.20;;;;;;5033777;28;46517;-80
2023/06/18 02:39:48;;;;;;;20.77;13.20;;;12.20;26.60;;;;;;5034033;28;46875;-79
2023/06/18 02:42:14;;;;;;;13.90;10.60;;;12.20;26.50;;;;;;5035605;28;49302;-79
2023/06/18 02:44:42;;;;;;;16.00;10.90;;;12.20;26.60;;;;;;5032857;28;46728;-79
2023/06/18 02:47:08;;;;;;;18.53;11.53;;;12.20;26.60;;;;;;5031598;28;45999;-80
2023/06/18 02:49:34;;;;;;;17.63;11.07;;;12.20;26.60;;;;;;5030193;28;46317;-78
2023/06/18 02:52:00;;;;;;;16.50;11.40;;;12.10;26.60;;;;;;5037917;28;48415;-78
2023/06/18 02:54:25;;;;;;;16.10;10.97;;;12.20;26.70;;;;;;5029391;28;46536;-77
2023/06/18 02:56:51;;;;;;;18.07;12.33;;;12.20;26.80;;;;;;5028616;28;45870;-77
2023/06/18 02:59:17;;;;;;;16.50;11.47;;;12.20;26.80;;;;;;5029859;28;46815;-79
2023/06/18 03:01:44;;;;;;;19.13;11.87;;;12.10;26.80;;;;;;5030053;28;46961;-77
2023/06/18 03:04:10;;;;;;;15.83;10.93;;;12.00;26.90;;;;;;5026624;28;46482;-78
2023/06/18 03:06:37;;;;;;;18.90;11.70;;;12.00;26.90;;;;;;5029045;28;46440;-78
2023/06/18 03:09:03;;;;;;;21.90;11.37;;;12.10;27.00;;;;;;5029525;28;46418;-78
2023/06/18 03:11:30;;;;;;;17.57;11.50;;;12.20;26.90;;;;;;5028284;28;46990;-79
2023/06/18 03:13:56;;;;;;;16.50;10.70;;;12.20;26.90;;;;;;5030028;28;46897;-78
2023/06/18 03:16:23;;;;;;;17.30;11.27;;;12.20;26.70;;;;;;5028338;28;46443;-78
2023/06/18 03:18:49;;;;;;;17.00;11.90;;;12.30;26.80;;;;;;5027588;28;46357;-78
2023/06/18 03:21:15;;;;;;;18.47;12.13;;;12.30;26.80;;;;;;5027958;28;46636;-78
2023/06/18 03:23:43;;;;;;;29.17;11.03;;;12.20;26.70;;;;;;5024987;28;46872;-78
2023/06/18 03:26:09;;;;;;;20.33;12.27;;;12.10;26.70;;;;;;5030507;28;46471;-79
2023/06/18 03:28:35;;;;;;;18.90;12.20;;;12.00;26.90;;;;;;5027351;28;46673;-79
2023/06/18 03:31:01;;;;;;;19.40;11.97;;;11.90;27.50;;;;;;5029627;28;47480;-77
2023/06/18 03:33:29;;;;;;;23.37;10.90;;;11.90;27.40;;;;;;5033501;28;46812;-78
2023/06/18 03:35:55;;;;;;;20.57;11.73;;;11.90;27.40;;;;;;5029762;28;46474;-77
2023/06/18 03:38:20;;;;;;;16.73;11.27;;;12.00;27.30;;;;;;5026689;28;46410;-78
2023/06/18 03:40:46;;;;;;;16.57;10.90;;;12.10;27.10;;;;;;5026546;28;46506;-78
2023/06/18 03:43:11;;;;;;;21.20;10.80;;;12.10;26.80;;;;;;5029031;28;46936;-77
2023/06/18 03:45:37;;;;;;;18.87;11.63;;;12.10;26.80;;;;;;5030754;28;46424;-79
2023/06/18 03:48:03;;;;;;;21.50;10.93;;;12.20;26.70;;;;;;5029532;28;46380;-79
2023/06/18 03:50:28;;;;;;;21.13;11.70;;;12.30;26.50;;;;;;5025541;28;46502;-76
2023/06/18 03:52:54;;;;;;;17.73;11.47;;;12.40;26.30;;;;;;5021111;28;51038;-77
2023/06/18 03:55:19;;;;;;;19.67;11.43;;;12.50;26.20;;;;;;5027758;28;46699;-76
2023/06/18 03:57:45;;;;;;;16.73;10.30;;;12.60;26.20;;;;;;5028592;28;46596;-78
2023/06/18 04:00:11;;;;;;;16.63;11.07;;;13.20;26.20;;;;;;5023613;28;46777;-78
2023/06/18 04:02:37;;;;;;;18.90;10.53;;;12.90;25.70;;;;;;5027626;28;46673;-78
2023/06/18 04:05:03;;;;;;;17.03;10.87;;;13.00;25.50;;;;;;5025011;28;46745;-78
2023/06/18 04:07:28;;;;;;;15.83;11.00;;;13.20;25.50;;;;;;5028152;28;47423;-77
2023/06/18 04:09:54;;;;;;;20.73;11.17;;;13.30;25.30;;;;;;5028234;28;47103;-78
2023/06/18 04:12:19;;;;;;;14.83;9.20;;;13.40;25.10;;;;;;5028011;28;47543;-77
2023/06/18 04:14:45;;;;;;;16.20;11.60;;;13.60;24.90;;;;;;5028147;28;45930;-77
2023/06/18 04:17:10;;;;;;;15.10;10.23;;;13.70;24.60;;;;;;5028399;28;46975;-79
2023/06/18 04:19:36;;;;;;;15.07;9.93;;;13.90;24.30;;;;;;5029342;28;46965;-78
2023/06/18 04:22:01;;;;;;;15.43;10.20;;;14.10;24.10;;;;;;5028614;28;46525;-76
2023/06/18 04:24:27;;;;;;;18.80;10.70;;;14.30;23.90;;;;;;5029395;28;45843;-79
2023/06/18 04:26:52;;;;;;;16.50;10.00;;;14.40;23.60;;;;;;5029418;28;46675;-78
2023/06/18 04:29:18;;;;;;;18.67;10.50;;;14.60;23.30;;;;;;5026818;28;46456;-78
2023/06/18 04:31:43;;;;;;;17.00;10.10;;;14.80;23.30;;;;;;5028246;28;46803;-78
2023/06/18 04:34:09;;;;;;;20.13;10.63;;;14.90;23.20;;;;;;5034537;28;46538;-80
2023/06/18 04:36:36;;;;;;;17.70;10.40;;;15.00;23.00;;;;;;5035042;28;46749;-76
2023/06/18 04:39:02;;;;;;;17.10;10.37;;;15.20;22.70;;;;;;5029910;28;46649;-77
2023/06/18 04:41:27;;;;;;;19.03;10.33;;;15.30;22.50;;;;;;5029864;28;46852;-77
2023/06/18 04:43:53;;;;;;;16.83;10.03;;;15.60;22.30;;;;;;5032505;28;45963;-78
2023/06/18 04:46:18;;;;;;;19.57;9.63;;;16.40;21.50;;;;;;5031032;28;46437;-77
2023/06/18 04:48:44;;;;;;;14.10;9.47;;;17.50;20.70;;;;;;5026947;28;46551;-78
2023/06/18 04:51:09;;;;;;;14.67;9.70;;;18.30;19.20;;;;;;5045187;28;46481;-77
2023/06/18 04:53:35;;;;;;;17.30;10.40;;;19.10;17.80;;;;;;5028927;28;46668;-77
2023/06/18 04:56:01;;;;;;;14.40;8.33;;;19.80;16.70;;;;;;5036911;28;46822;-76
2023/06/18 04:58:27;;;;;;;15.50;9.37;;;20.40;15.70;;;;;;5028944;28;46364;-76
2023/06/18 05:00:53;;;;;;;14.00;9.50;;;20.70;14.70;;;;;;5033954;28;47005;-77
2023/06/18 05:03:19;;;;;;;14.67;10.00;;;20.90;14.20;;;;;;5026698;28;46627;-76
2023/06/18 05:05:44;;;;;;;15.73;9.57;;;21.30;13.20;;;;;;5029593;28;47086;-78
2023/06/18 05:08:10;;;;;;;16.20;9.80;;;21.50;12.40;;;;;;5030737;28;49410;-77
2023/06/18 05:10:35;;;;;;;14.63;9.43;;;21.60;12.50;;;;;;5029199;28;46442;-78
2023/06/18 05:13:02;;;;;;;21.10;9.50;;;22.00;11.20;;;;;;5029957;28;46447;-76
2023/06/18 05:15:27;;;;;;;12.53;7.87;;;22.40;10.30;;;;;;5030129;28;46496;-77
2023/06/18 05:17:53;;;;;;;15.13;8.33;;;22.70;9.80;;;;;;5027182;28;47118;-77
2023/06/18 05:20:19;;;;;;;17.33;9.47;;;23.10;8.90;;;;;;5026715;28;46783;-78
2023/06/18 05:22:45;;;;;;;12.83;8.20;;;23.60;7.70;;;;;;5028533;28;46410;-76
2023/06/18 05:25:10;;;;;;;13.03;8.90;;;24.20;6.90;;;;;;5028799;28;47014;-77
2023/06/18 05:27:36;;;;;;;13.87;9.37;;;24.30;6.10;;;;;;5030652;28;46437;-75
2023/06/18 05:30:02;;;;;;;21.83;9.03;;;24.60;5.00;;;;;;5021360;28;46537;-76
2023/06/18 05:32:28;;;;;;;13.47;8.57;;;25.00;4.40;;;;;;5043486;28;47597;-79
2023/06/18 05:34:55;;;;;;;10.80;8.10;;;25.30;3.60;;;;;;5033144;28;45955;-80
2023/06/18 05:37:21;;;;;;;19.30;8.70;;;25.70;3.80;;;;;;5032563;28;46998;-79
2023/06/18 05:39:46;;;;;;;19.70;9.23;;;26.00;3.10;;;;;;5030638;28;46861;-78
2023/06/18 05:42:12;;;;;;;11.43;8.27;;;26.50;1.80;;;;;;5037355;28;46730;-80
2023/06/18 05:44:37;;;;;;;263.63;22.47;;;26.80;1.00;;;;;;5035253;28;46341;-80
2023/06/18 05:47:03;;;;;;;13.33;8.20;;;27.10;1.00;;;;;;5027973;28;47312;-79
2023/06/18 05:49:29;;;;;;;23.13;8.50;;;27.50;1.00;;;;;;5029527;28;46683;-79
2023/06/18 05:51:54;;;;;;;20.03;8.83;;;27.60;1.00;;;;;;5032038;28;46526;-78
2023/06/18 05:54:20;;;;;;;14.37;8.40;;;27.50;1.00;;;;;;5027884;28;46713;-78
2023/06/18 05:56:45;;;;;;;12.90;8.40;;;26.40;1.00;;;;;;5030301;28;47045;-78
2023/06/18 05:59:11;;;;;;;12.43;8.87;;;25.30;2.60;;;;;;5025878;28;46673;-78
2023/06/18 06:01:37;;;;;;;15.93;7.80;;;24.70;3.40;;;;;;5030329;28;46561;-80
2023/06/18 06:04:03;;;;;;;13.10;8.20;;;24.10;4.60;;;;;;5031098;28;46954;-83
2023/06/18 06:06:29;;;;;;;14.93;8.80;;;23.70;5.30;;;;;;5025446;28;46613;-79
2023/06/18 06:08:55;;;;;;;12.10;8.07;;;23.50;5.60;;;;;;5038015;28;46241;-80
2023/06/18 06:11:21;;;;;;;11.93;8.50;;;23.50;5.40;;;;;;5035250;28;46450;-78
2023/06/18 06:13:46;;;;;;;11.30;7.80;;;23.40;5.50;;;;;;5030651;28;46470;-79
2023/06/18 06:16:12;;;;;;;12.40;8.50;;;23.40;5.20;;;;;;5028675;28;46589;-79
2023/06/18 06:18:37;;;;;;;17.13;8.83;;;23.50;4.90;;;;;;5033553;28;46404;-78
2023/06/18 06:21:03;;;;;;;12.93;8.20;;;23.50;4.50;;;;;;5046532;28;46650;-79
2023/06/18 06:23:30;;;;;;;13.10;8.70;;;23.50;4.40;;;;;;5031113;28;46680;-79
2023/06/18 06:25:56;;;;;;;12.53;7.97;;;23.50;4.20;;;;;;5036081;28;48450;-79
2023/06/18 06:28:22;;;;;;;14.10;9.37;;;23.50;4.10;;;;;;5029972;28;46438;-77
2023/06/18 06:30:47;;;;;;;13.87;9.00;;;23.40;4.00;;;;;;5029855;28;45862;-78
2023/06/18 06:33:13;;;;;;;13.60;8.83;;;23.30;4.00;;;;;;5029401;28;46613;-78
2023/06/18 06:35:38;;;;;;;18.07;8.37;;;23.20;4.40;;;;;;5034140;28;46539;-76
2023/06/18 06:38:04;;;;;;;23.37;9.33;;;23.10;4.60;;;;;;5028295;28;46481;-77
2023/06/18 06:40:30;;;;;;;11.93;8.60;;;23.10;4.80;;;;;;5029286;28;46544;-77
2023/06/18 06:42:55;;;;;;;13.20;8.73;;;23.30;4.60;;;;;;5030421;28;46394;-78
2023/06/18 06:45:21;;;;;;;13.83;8.77;;;23.50;4.50;;;;;;5038031;28;49048;-78
2023/06/18 06:47:48;;;;;;;13.03;9.27;;;23.50;4.30;;;;;;5032916;28;47237;-77
2023/06/18 06:50:14;;;;;;;16.00;8.90;;;23.40;4.50;;;;;;5033300;28;47204;-77
2023/06/18 06:52:39;;;;;;;18.13;8.97;;;23.10;4.90;;;;;;5030448;28;46723;-77
2023/06/18 06:55:05;;;;;;;15.80;9.10;;;23.00;5.10;;;;;;5030415;28;50042;-79
2023/06/18 06:57:31;;;;;;;15.47;9.20;;;23.10;5.00;;;;;;5036294;28;46854;-78
2023/06/18 06:59:56;;;;;;;17.30;9.00;;;23.30;4.90;;;;;;5028394;28;46834;-76
2023/06/18 07:02:22;;;;;;;14.60;9.50;;;23.40;4.70;;;;;;5032320;28;46621;-77
2023/06/18 07:04:48;;;;;;;14.13;9.20;;;23.30;4.70;;;;;;5029117;28;46477;-78
2023/06/18 07:07:16;;;;;;;13.97;9.50;;;23.20;4.70;;;;;;5028873;28;46468;-78
2023/06/18 07:09:42;;;;;;;16.87;9.80;;;23.10;4.90;;;;;;5030092;28;46539;-76
2023/06/18 07:12:08;;;;;;;17.90;8.63;;;23.20;5.10;;;;;;5035942;28;46512;-77
2023/06/18 07:14:35;;;;;;;11.90;8.23;;;23.40;5.00;;;;;;5035276;28;48963;-76
2023/06/18 07:17:00;;;;;;;15.20;8.70;;;23.70;4.60;;;;;;5031528;28;46563;-76
2023/06/18 07:19:26;;;;;;;13.33;9.47;;;24.00;4.30;;;;;;5035255;28;46435;-76
2023/06/18 07:21:51;;;;;;;14.53;9.37;;;24.20;3.70;;;;;;5035223;28;46726;-77
2023/06/18 07:24:17;;;;;;;16.33;8.67;;;24.00;4.00;;;;;;5027339;28;47131;-78
2023/06/18 07:26:43;;;;;;;22.33;8.80;;;24.00;4.10;;;;;;5027060;28;46336;-77
2023/06/18 07:29:09;;;;;;;14.90;8.10;;;24.10;3.80;;;;;;5031772;28;46940;-77
2023/06/18 07:31:35;;;;;;;14.47;7.63;;;24.00;3.60;;;;;;5029136;28;46407;-78
2023/06/18 07:34:00;;;;;;;16.00;7.63;;;23.90;3.30;;;;;;5040326;28;46840;-79
2023/06/18 07:36:26;;;;;;;15.80;7.50;;;24.10;3.80;;;;;;5037353;28;46292;-78
2023/06/18 07:38:52;;;;;;;11.57;7.67;;;24.40;3.00;;;;;;5031986;28;46390;-78
2023/06/18 07:41:17;;;;;;;13.33;8.60;;;24.70;2.30;;;;;;5030469;28;45921;-78
2023/06/18 07:43:43;;;;;;;10.43;7.30;;;24.90;1.90;;;;;;5031300;28;46380;-79
2023/06/18 07:46:09;;;;;;;10.97;7.73;;;24.80;2.10;;;;;;5028095;28;46554;-81
2023/06/18 07:48:34;;;;;;;13.90;7.80;;;25.00;1.80;;;;;;5030544;28;46459;-80
2023/06/18 07:51:00;;;;;;;12.90;7.43;;;25.10;1.30;;;;;;5038631;28;46455;-79
2023/06/18 07:53:25;;;;;;;15.40;7.70;;;25.20;1.10;;;;;;5043496;28;47996;-79
2023/06/18 07:55:51;;;;;;;12.73;8.00;;;25.20;1.00;;;;;;5035016;28;46490;-80
2023/06/18 07:58:16;;;;;;;13.37;7.10;;;25.10;1.00;;;;;;5031429;28;46312;-80
2023/06/18 08:00:42;;;;;;;12.47;7.37;;;25.20;1.00;;;;;;5029984;28;46396;-80
2023/06/18 08:03:07;;;;;;;11.63;7.40;;;25.30;1.00;;;;;;5029882;28;55448;-78
2023/06/18 08:05:33;;;;;;;12.33;7.40;;;25.40;1.00;;;;;;5042545;28;46919;-79
2023/06/18 08:07:59;;;;;;;11.90;7.60;;;25.40;1.00;;;;;;5030832;28;46919;-76
2023/06/18 08:10:24;;;;;;;11.17;7.50;;;25.70;1.00;;;;;;5039815;28;47397;-79
2023/06/18 08:12:50;;;;;;;9.80;6.47;;;25.80;1.00;;;;;;5034869;28;46306;-76
2023/06/18 08:15:15;;;;;;;12.10;6.60;;;26.00;1.00;;;;;;5033763;28;45870;-76
2023/06/18 08:17:41;;;;;;;9.93;6.47;;;26.20;1.00;;;;;;5032891;28;46474;-78
2023/06/18 08:20:07;;;;;;;10.70;6.80;;;26.30;1.00;;;;;;5034066;28;46414;-77
2023/06/18 08:22:33;;;;;;;16.20;7.67;;;26.40;1.00;;;;;;5035800;28;46511;-76
2023/06/18 08:24:58;;;;;;;12.30;7.20;;;26.50;1.00;;;;;;5032402;28;46782;-76
2023/06/18 08:27:24;;;;;;;8.90;6.50;;;26.30;1.00;;;;;;5031988;28;46808;-77
2023/06/18 08:29:50;;;;;;;12.50;6.20;;;26.20;1.00;;;;;;5033836;28;45848;-76
2023/06/18 08:32:15;;;;;;;11.00;6.87;;;26.40;1.00;;;;;;5028735;28;46482;-77
2023/06/18 08:34:42;;;;;;;9.73;5.93;;;26.70;1.00;;;;;;5031830;28;46596;-76
2023/06/18 08:37:10;;;;;;;9.67;5.93;;;26.60;1.00;;;;;;5037935;28;46703;-77
2023/06/18 08:39:36;;;;;;;10.50;5.20;;;26.50;1.00;;;;;;5034648;28;46279;-76
2023/06/18 08:42:01;;;;;;;11.10;6.23;;;26.70;1.00;;;;;;5030110;28;47233;-76
2023/06/18 08:44:33;;;;;;;14.17;6.63;;;26.80;1.00;;;;;;5030000;28;46663;-78
2023/06/18 08:47:00;;;;;;;11.43;6.70;;;26.90;1.00;;;;;;5032917;28;46449;-80
2023/06/18 08:49:27;;;;;;;11.57;6.17;;;26.90;1.00;;;;;;5032217;28;46350;-76
2023/06/18 08:51:58;;;;;;;10.93;5.73;;;27.00;1.00;;;;;;5027708;28;46475;-78
2023/06/18 08:54:31;;;;;;;12.20;6.47;;;27.00;1.00;;;;;;5030436;28;45939;-77
2023/06/18 08:57:02;;;;;;;10.13;6.03;;;27.00;1.00;;;;;;5030994;28;45861;-78
2023/06/18 08:59:28;;;;;;;12.30;6.50;;;26.80;1.00;;;;;;5040045;28;46801;-79
2023/06/18 09:01:55;;;;;;;9.40;5.67;;;26.90;1.00;;;;;;5031875;28;46462;-78
2023/06/18 09:04:22;;;;;;;10.47;6.60;;;26.80;1.00;;;;;;5031032;28;46538;-77
2023/06/18 09:06:48;;;;;;;8.57;5.90;;;26.90;1.00;;;;;;5030610;28;46820;-76
2023/06/18 09:09:14;;;;;;;9.70;5.30;;;26.90;1.00;;;;;;5033543;28;46301;-77
2023/06/18 09:11:39;;;;;;;11.70;6.37;;;27.00;1.00;;;;;;5029256;28;46858;-77
2023/06/18 09:14:06;;;;;;;10.43;6.33;;;27.10;1.00;;;;;;5029200;28;45743;-78
2023/06/18 09:16:31;;;;;;;9.40;5.90;;;27.30;1.00;;;;;;5032437;28;46177;-76
2023/06/18 09:18:57;;;;;;;8.27;5.57;;;27.50;1.00;;;;;;5029707;28;46463;-78
2023/06/18 09:21:40;;;;;;;7.00;5.00;;;27.80;1.00;;;;;;5030649;28;47940;-76
2023/06/18 09:24:08;;;;;;;8.93;5.77;;;27.90;1.00;;;;;;5026960;28;46674;-75
2023/06/18 09:26:35;;;;;;;11.50;6.33;;;27.80;1.00;;;;;;5030851;28;46531;-77
2023/06/18 09:29:08;;;;;;;9.03;5.20;;;28.00;1.00;;;;;;5029661;28;46657;-77
2023/06/18 09:31:36;;;;;;;10.87;5.90;;;28.20;1.00;;;;;;5029624;28;46564;-76
2023/06/18 09:34:12;;;;;;;7.97;5.33;;;28.20;1.00;;;;;;5030232;28;46478;-76
2023/06/18 09:36:40;;;;;;;8.90;5.90;;;28.20;1.00;;;;;;5028900;28;45946;-78
2023/06/18 09:39:25;;;;;;;8.60;5.57;;;28.20;1.00;;;;;;5031763;28;46553;-76
2023/06/18 09:41:53;;;;;;;8.40;5.90;;;28.30;1.00;;;;;;5031928;28;49415;-77
2023/06/18 09:44:23;;;;;;;10.60;5.57;;;28.20;1.00;;;;;;5037369;28;46391;-79
2023/06/18 09:46:56;;;;;;;8.47;5.20;;;28.20;1.00;;;;;;5037809;28;46526;-77
2023/06/18 09:49:23;;;;;;;8.10;5.70;;;28.40;1.00;;;;;;5036230;28;46638;-79
2023/06/18 09:51:50;;;;;;;9.13;5.30;;;28.50;1.00;;;;;;5030711;28;46555;-76
2023/06/18 09:54:16;;;;;;;9.97;5.93;;;28.50;1.00;;;;;;5030814;28;46683;-76
2023/06/18 09:57:02;;;;;;;12.60;6.27;;;28.60;1.00;;;;;;5032143;28;46464;-76
2023/06/18 09:59:28;;;;;;;8.87;6.13;;;28.60;1.00;;;;;;5032534;28;46384;-77
2023/06/18 10:01:55;;;;;;;10.63;5.67;;;28.50;1.00;;;;;;5028061;28;46478;-77
2023/06/18 10:04:21;;;;;;;11.43;6.27;;;28.40;1.00;;;;;;5036370;28;46680;-76
2023/06/18 10:07:15;;;;;;;10.80;5.50;;;28.20;1.00;;;;;;5027662;28;46967;-77
2023/06/18 10:09:44;;;;;;;9.10;5.87;;;28.10;1.00;;;;;;5030460;28;46509;-77
2023/06/18 10:12:12;;;;;;;9.03;5.70;;;28.10;1.00;;;;;;5028283;28;46691;-77
2023/06/18 10:14:39;;;;;;;14.30;6.23;;;28.40;1.00;;;;;;5029649;28;46769;-75
2023/06/18 10:17:31;;;;;;;13.03;6.53;;;28.40;1.00;;;;;;5028315;28;46526;-77
2023/06/18 10:20:06;;;;;;;12.57;5.70;;;28.50;1.00;;;;;;5030094;28;46498;-78
2023/06/18 10:22:45;;;;;;;9.30;6.10;;;28.60;1.00;;;;;;5028156;28;47977;-78
2023/06/18 10:25:11;;;;;;;8.67;5.50;;;28.60;1.00;;;;;;5026579;28;46812;-76
2023/06/18 10:27:37;;;;;;;9.80;6.20;;;28.80;1.00;;;;;;5030481;28;46658;-78
2023/06/18 10:30:03;;;;;;;16.53;5.53;;;29.00;1.00;;;;;;5025676;28;46542;-78
2023/06/18 10:32:31;;;;;;;12.30;6.40;;;29.10;1.00;;;;;;5040249;28;49316;-78
2023/06/18 10:34:59;;;;;;;10.03;6.23;;;29.00;1.00;;;;;;5027660;28;47027;-77
2023/06/18 10:37:26;;;;;;;10.90;6.40;;;28.70;1.00;;;;;;5028234;28;47834;-77
2023/06/18 10:39:53;;;;;;;10.40;5.70;;;28.60;1.00;;;;;;5031597;28;46387;-77
2023/06/18 10:42:20;;;;;;;11.90;6.30;;;28.70;1.00;;;;;;5026723;28;48589;-78
2023/06/18 10:44:53;;;;;;;11.20;6.47;;;29.00;1.00;;;;;;5030020;28;46719;-76
2023/06/18 10:47:20;;;;;;;12.70;5.87;;;28.90;1.00;;;;;;5037019;28;46459;-78
2023/06/18 10:50:04;;;;;;;9.20;5.43;;;28.90;1.00;;;;;;5028514;28;46589;-76
2023/06/18 10:52:37;;;;;;;9.23;5.87;;;29.20;1.00;;;;;;5046566;28;48128;-77
2023/06/18 10:55:06;;;;;;;12.83;5.97;;;28.90;1.00;;;;;;5028909;28;46667;-76
2023/06/18 10:57:45;;;;;;;9.20;5.57;;;28.50;1.00;;;;;;5031929;28;46529;-76
2023/06/18 11:00:17;;;;;;;9.97;5.90;;;28.60;1.00;;;;;;5031387;28;46425;-77
2023/06/18 11:02:45;;;;;;;7.70;5.50;;;28.70;1.00;;;;;;5029961;28;47265;-76
2023/06/18 11:05:16;;;;;;;11.10;5.40;;;29.00;1.00;;;;;;5032666;28;46242;-78
2023/06/18 11:07:42;;;;;;;12.23;6.30;;;29.10;1.00;;;;;;5027904;28;46531;-76
2023/06/18 11:10:08;;;;;;;8.60;5.40;;;29.10;1.00;;;;;;5028054;28;46638;-76
2023/06/18 11:12:38;;;;;;;10.53;5.80;;;29.40;1.00;;;;;;5032035;28;48332;-78
2023/06/18 11:15:17;;;;;;;9.70;5.57;;;29.30;1.00;;;;;;5028480;28;46682;-76
2023/06/18 11:17:46;;;;;;;9.93;5.70;;;28.90;1.00;;;;;;5029696;28;46496;-76
2023/06/18 11:20:12;;;;;;;9.30;6.10;;;29.00;1.00;;;;;;5027088;28;46649;-75
2023/06/18 11:22:40;;;;;;;9.73;5.73;;;28.70;1.00;;;;;;5028996;28;46201;-76
2023/06/18 11:25:08;;;;;;;9.43;6.30;;;28.80;1.00;;;;;;5038141;28;46477;-77
2023/06/18 11:27:34;;;;;;;9.10;6.00;;;29.00;1.00;;;;;;5030821;28;46670;-85
2023/06/18 11:30:00;;;;;;;9.53;5.63;;;29.30;1.00;;;;;;5032460;28;46620;-74
2023/06/18 11:32:27;;;;;;;12.30;6.70;;;29.40;1.00;;;;;;5024643;28;48227;-74
2023/06/18 11:34:56;;;;;;;10.63;5.63;;;29.20;1.00;;;;;;5026499;28;46422;-77
2023/06/18 11:37:25;;;;;;;9.60;5.50;;;29.00;1.00;;;;;;5026648;28;46411;-77
2023/06/18 11:39:51;;;;;;;9.93;5.00;;;29.20;1.00;;;;;;5027588;28;46506;-78
2023/06/18 11:42:21;;;;;;;13.47;5.97;;;29.40;1.00;;;;;;5041816;28;48200;-76
2023/06/18 11:44:58;;;;;;;12.07;6.13;;;29.60;1.00;;;;;;5032241;28;46522;-76
2023/06/18 11:47:23;;;;;;;13.97;5.33;;;29.40;1.00;;;;;;5039207;28;46454;-75
2023/06/18 11:49:51;;;;;;;9.73;5.93;;;29.50;1.00;;;;;;5029347;28;46642;-75
2023/06/18 11:52:19;;;;;;;9.30;5.60;;;29.70;1.00;;;;;;5030930;28;46469;-77
2023/06/18 11:54:45;;;;;;;8.70;5.60;;;29.50;1.00;;;;;;5033493;28;47041;-76
2023/06/18 11:57:13;;;;;;;9.07;5.07;;;29.40;1.00;;;;;;5029909;28;47671;-77
2023/06/18 11:59:40;;;;;;;9.40;5.10;;;29.60;1.00;;;;;;5035379;28;46462;-76
2023/06/18 12:02:16;;;;;;;7.43;5.10;;;29.50;1.00;;;;;;5028505;28;46483;-75
2023/06/18 12:04:45;;;;;;;8.30;5.47;;;29.30;1.00;;;;;;5034405;28;46607;-78
2023/06/18 12:07:25;;;;;;;8.03;5.27;;;29.00;1.00;;;;;;5037088;28;46427;-76
2023/06/18 12:09:52;;;;;;;9.57;5.33;;;29.00;1.00;;;;;;5031824;28;45959;-77
2023/06/18 12:12:48;;;;;;;7.87;5.60;;;29.00;1.00;;;;;;5031242;28;46507;-76
2023/06/18 12:15:32;;;;;;;10.13;5.90;;;29.00;1.00;;;;;;5032829;28;46426;-75
2023/06/18 12:18:18;;;;;;;9.73;6.27;;;29.10;1.00;;;;;;5031174;28;46453;-76
2023/06/18 12:20:44;;;;;;;8.90;5.40;;;29.20;1.00;;;;;;5030183;28;46543;-76
2023/06/18 12:23:14;;;;;;;9.50;5.50;;;29.40;1.00;;;;;;5031382;28;46901;-76
2023/06/18 12:25:40;;;;;;;10.67;6.00;;;29.40;1.00;;;;;;5031919;28;46454;-76
2023/06/18 12:28:06;;;;;;;8.50;5.53;;;29.30;1.00;;;;;;5032170;28;46555;-76
2023/06/18 12:30:37;;;;;;;10.47;5.33;;;29.20;1.00;;;;;;5032949;28;46486;-77
2023/06/18 12:33:05;;;;;;;9.27;5.27;;;29.40;1.00;;;;;;5032269;28;46781;-75
2023/06/18 12:35:31;;;;;;;7.57;5.00;;;29.60;1.00;;;;;;5033571;28;46488;-77
2023/06/18 12:38:08;;;;;;;8.97;5.63;;;29.80;1.00;;;;;;5026854;28;46606;-75
2023/06/18 12:40:46;;;;;;;9.80;5.53;;;29.90;1.00;;;;;;5035216;28;46431;-75
2023/06/18 12:43:12;;;;;;;9.37;5.57;;;29.90;1.00;;;;;;5032087;28;46189;-77
2023/06/18 12:45:39;;;;;;;8.47;5.60;;;29.80;1.00;;;;;;5033290;28;46439;-76